Airfield :
LOGIN :

Register | Disclaimer

   EN    FR    IT 

 










Legend :    VFR   Marginal VFR   IFR   Intensive IFR   Very Intensive IFR
Visi :
Ceiling :
>= 8 km
>= 3000ft
5 to 8 km
1000 to 3000 ft
1500m to 5 km
500 to 1000 ft
800 to 1500m
200 to 500 ft
< 800m
< 200 ft
Symbols :   Thunderstorms  Fog  Heavy snow  Heavy precipitations  Wind > 20 kt
SIGMETs :     Misc.  Thunderstorms  Icing  Turbulence  Mountain Waves  Volcanic Ashes






- Airport Elevation : 84 ft
- IATA code : KOK


EFKK - Kruunupyy

CURRENT METAR :
  • 301950Z AUTO 21006KT CAVOK M06/M12 Q1025

EXPIRED METARs :
  • 301920Z AUTO 21006KT CAVOK M06/M12 Q1025
  • 301850Z AUTO 22004KT CAVOK M05/M11 Q1025
  • 301820Z AUTO 22004KT CAVOK M05/M12 Q1025
  • 301750Z AUTO 23004KT CAVOK M04/M11 Q1025

Expired Forecast.



MET'MAP, your aeronautical weather chart ! - Copyright ORBIFLY December 2007 - Disclaimer

ORBIFLY MET'MAP TEAM :

Programming & Development : Alexandra Zaïnal
Concept & original design : Baudouin d'Aumeries
Assistance for programming : Marc-Olivier Méhu
Technical & hardware support : Manuel Goepfert

Contact : metmap@orbifly.com




SOURCES & CREDITS :

   NOAA